sensor_id;sensor_type;location;lat;lon;timestamp;P1;durP1;ratioP1;P2;durP2;ratioP2
18653;SDS011;9456;47.824;16.228;2023-05-15T00:02:00;18.67;;;16.50;;
18653;SDS011;9456;47.824;16.228;2023-05-15T00:04:29;22.60;;;18.20;;
18653;SDS011;9456;47.824;16.228;2023-05-15T00:06:58;21.40;;;17.90;;
18653;SDS011;9456;47.824;16.228;2023-05-15T00:09:27;20.57;;;18.37;;
18653;SDS011;9456;47.824;16.228;2023-05-15T00:11:56;23.07;;;20.07;;
18653;SDS011;9456;47.824;16.228;2023-05-15T00:14:25;19.53;;;16.37;;
18653;SDS011;9456;47.824;16.228;2023-05-15T00:16:54;21.57;;;16.90;;
18653;SDS011;9456;47.824;16.228;2023-05-15T00:19:23;18.03;;;16.20;;
18653;SDS011;9456;47.824;16.228;2023-05-15T00:21:52;17.33;;;15.17;;
18653;SDS011;9456;47.824;16.228;2023-05-15T00:24:21;16.67;;;14.73;;
18653;SDS011;9456;47.824;16.228;2023-05-15T00:26:50;16.63;;;14.43;;
18653;SDS011;9456;47.824;16.228;2023-05-15T00:29:19;16.77;;;14.93;;
18653;SDS011;9456;47.824;16.228;2023-05-15T00:31:48;19.70;;;14.87;;
18653;SDS011;9456;47.824;16.228;2023-05-15T00:34:16;23.13;;;15.80;;
18653;SDS011;9456;47.824;16.228;2023-05-15T00:36:45;17.80;;;15.47;;
18653;SDS011;9456;47.824;16.228;2023-05-15T00:39:14;19.63;;;15.53;;
18653;SDS011;9456;47.824;16.228;2023-05-15T00:44:31;20.87;;;15.30;;
18653;SDS011;9456;47.824;16.228;2023-05-15T00:47:01;16.43;;;14.73;;
18653;SDS011;9456;47.824;16.228;2023-05-15T00:49:30;17.20;;;14.70;;
18653;SDS011;9456;47.824;16.228;2023-05-15T00:51:59;19.10;;;15.07;;
18653;SDS011;9456;47.824;16.228;2023-05-15T00:54:28;19.20;;;15.83;;
18653;SDS011;9456;47.824;16.228;2023-05-15T00:56:57;19.60;;;14.67;;
18653;SDS011;9456;47.824;16.228;2023-05-15T00:59:26;17.90;;;15.00;;
18653;SDS011;9456;47.824;16.228;2023-05-15T01:01:55;15.27;;;13.70;;
18653;SDS011;9456;47.824;16.228;2023-05-15T01:04:24;16.50;;;14.07;;
18653;SDS011;9456;47.824;16.228;2023-05-15T01:06:53;15.33;;;13.73;;
18653;SDS011;9456;47.824;16.228;2023-05-15T01:09:23;15.57;;;13.80;;
18653;SDS011;9456;47.824;16.228;2023-05-15T01:11:53;17.23;;;14.07;;
18653;SDS011;9456;47.824;16.228;2023-05-15T01:14:20;17.07;;;14.13;;
18653;SDS011;9456;47.824;16.228;2023-05-15T01:16:49;18.90;;;14.33;;
18653;SDS011;9456;47.824;16.228;2023-05-15T01:19:18;18.00;;;14.73;;
18653;SDS011;9456;47.824;16.228;2023-05-15T01:27:46;16.63;;;14.37;;
18653;SDS011;9456;47.824;16.228;2023-05-15T01:30:17;18.20;;;14.33;;
18653;SDS011;9456;47.824;16.228;2023-05-15T01:32:48;20.67;;;15.73;;
18653;SDS011;9456;47.824;16.228;2023-05-15T01:35:18;16.03;;;14.33;;
18653;SDS011;9456;47.824;16.228;2023-05-15T01:37:47;15.93;;;14.23;;
18653;SDS011;9456;47.824;16.228;2023-05-15T01:40:16;18.20;;;15.13;;
18653;SDS011;9456;47.824;16.228;2023-05-15T01:42:47;15.87;;;13.80;;
18653;SDS011;9456;47.824;16.228;2023-05-15T01:45:16;16.70;;;14.37;;
18653;SDS011;9456;47.824;16.228;2023-05-15T01:47:46;19.90;;;15.90;;
18653;SDS011;9456;47.824;16.228;2023-05-15T01:50:16;15.03;;;13.30;;
18653;SDS011;9456;47.824;16.228;2023-05-15T01:52:44;12.97;;;11.67;;
18653;SDS011;9456;47.824;16.228;2023-05-15T01:55:12;12.23;;;10.03;;
18653;SDS011;9456;47.824;16.228;2023-05-15T01:57:41;13.37;;;11.97;;
18653;SDS011;9456;47.824;16.228;2023-05-15T02:00:11;15.40;;;12.57;;
18653;SDS011;9456;47.824;16.228;2023-05-15T02:02:41;14.27;;;12.40;;
18653;SDS011;9456;47.824;16.228;2023-05-15T02:05:10;13.40;;;11.13;;
18653;SDS011;9456;47.824;16.228;2023-05-15T02:07:39;11.13;;;10.03;;
18653;SDS011;9456;47.824;16.228;2023-05-15T02:10:09;12.50;;;9.27;;
18653;SDS011;9456;47.824;16.228;2023-05-15T02:12:38;11.77;;;10.57;;
18653;SDS011;9456;47.824;16.228;2023-05-15T02:15:08;10.77;;;9.67;;
18653;SDS011;9456;47.824;16.228;2023-05-15T02:17:37;10.93;;;9.83;;
18653;SDS011;9456;47.824;16.228;2023-05-15T02:20:07;11.07;;;10.03;;
18653;SDS011;9456;47.824;16.228;2023-05-15T02:22:36;11.47;;;9.73;;
18653;SDS011;9456;47.824;16.228;2023-05-15T02:25:06;9.90;;;9.00;;
18653;SDS011;9456;47.824;16.228;2023-05-15T02:27:37;11.00;;;9.90;;
18653;SDS011;9456;47.824;16.228;2023-05-15T02:30:10;11.07;;;9.97;;
18653;SDS011;9456;47.824;16.228;2023-05-15T02:32:41;12.13;;;10.83;;
18653;SDS011;9456;47.824;16.228;2023-05-15T02:35:13;10.83;;;9.73;;
18653;SDS011;9456;47.824;16.228;2023-05-15T02:37:41;11.47;;;10.27;;
18653;SDS011;9456;47.824;16.228;2023-05-15T02:40:10;11.93;;;10.63;;
18653;SDS011;9456;47.824;16.228;2023-05-15T02:42:39;13.87;;;11.83;;
18653;SDS011;9456;47.824;16.228;2023-05-15T02:45:09;12.67;;;11.37;;
18653;SDS011;9456;47.824;16.228;2023-05-15T02:47:38;10.87;;;9.77;;
18653;SDS011;9456;47.824;16.228;2023-05-15T02:50:08;12.23;;;9.57;;
18653;SDS011;9456;47.824;16.228;2023-05-15T02:52:37;10.37;;;9.37;;
18653;SDS011;9456;47.824;16.228;2023-05-15T02:55:08;11.33;;;10.23;;
18653;SDS011;9456;47.824;16.228;2023-05-15T02:57:37;10.83;;;9.73;;
18653;SDS011;9456;47.824;16.228;2023-05-15T03:00:08;9.93;;;9.03;;
18653;SDS011;9456;47.824;16.228;2023-05-15T03:02:38;11.10;;;9.93;;
18653;SDS011;9456;47.824;16.228;2023-05-15T03:05:07;11.70;;;10.50;;
18653;SDS011;9456;47.824;16.228;2023-05-15T03:07:36;13.30;;;12.00;;
18653;SDS011;9456;47.824;16.228;2023-05-15T03:10:06;14.40;;;11.97;;
18653;SDS011;9456;47.824;16.228;2023-05-15T03:12:36;10.60;;;9.57;;
18653;SDS011;9456;47.824;16.228;2023-05-15T03:15:06;11.47;;;10.30;;
18653;SDS011;9456;47.824;16.228;2023-05-15T03:17:35;11.40;;;10.20;;
18653;SDS011;9456;47.824;16.228;2023-05-15T03:20:05;12.17;;;10.87;;
18653;SDS011;9456;47.824;16.228;2023-05-15T03:22:35;12.53;;;11.23;;
18653;SDS011;9456;47.824;16.228;2023-05-15T03:25:04;12.47;;;11.17;;
18653;SDS011;9456;47.824;16.228;2023-05-15T03:27:35;12.23;;;10.47;;
18653;SDS011;9456;47.824;16.228;2023-05-15T03:30:04;13.50;;;11.80;;
18653;SDS011;9456;47.824;16.228;2023-05-15T03:32:34;12.93;;;10.47;;
18653;SDS011;9456;47.824;16.228;2023-05-15T03:35:04;12.30;;;11.00;;
18653;SDS011;9456;47.824;16.228;2023-05-15T03:37:37;11.13;;;9.83;;
18653;SDS011;9456;47.824;16.228;2023-05-15T03:40:07;9.87;;;8.87;;
18653;SDS011;9456;47.824;16.228;2023-05-15T03:42:37;10.10;;;9.00;;
18653;SDS011;9456;47.824;16.228;2023-05-15T03:45:07;9.70;;;8.67;;
18653;SDS011;9456;47.824;16.228;2023-05-15T03:47:36;9.27;;;7.83;;
18653;SDS011;9456;47.824;16.228;2023-05-15T03:50:06;7.83;;;7.03;;
18653;SDS011;9456;47.824;16.228;2023-05-15T03:52:36;8.73;;;7.80;;
18653;SDS011;9456;47.824;16.228;2023-05-15T04:00:32;9.20;;;6.67;;
18653;SDS011;9456;47.824;16.228;2023-05-15T04:03:01;8.63;;;7.10;;
18653;SDS011;9456;47.824;16.228;2023-05-15T04:05:30;8.00;;;7.20;;
18653;SDS011;9456;47.824;16.228;2023-05-15T04:07:59;6.63;;;6.00;;
18653;SDS011;9456;47.824;16.228;2023-05-15T04:10:27;7.43;;;6.40;;
18653;SDS011;9456;47.824;16.228;2023-05-15T04:12:57;6.60;;;6.00;;
18653;SDS011;9456;47.824;16.228;2023-05-15T04:15:26;4.60;;;4.30;;
18653;SDS011;9456;47.824;16.228;2023-05-15T04:17:55;5.70;;;5.20;;
18653;SDS011;9456;47.824;16.228;2023-05-15T04:20:24;5.43;;;5.03;;
18653;SDS011;9456;47.824;16.228;2023-05-15T04:22:53;5.30;;;4.80;;
18653;SDS011;9456;47.824;16.228;2023-05-15T04:25:22;5.03;;;4.63;;
18653;SDS011;9456;47.824;16.228;2023-05-15T04:27:51;6.23;;;5.67;;
18653;SDS011;9456;47.824;16.228;2023-05-15T04:30:20;5.13;;;4.63;;
18653;SDS011;9456;47.824;16.228;2023-05-15T04:32:49;9.40;;;5.13;;
18653;SDS011;9456;47.824;16.228;2023-05-15T04:35:18;4.30;;;3.90;;
18653;SDS011;9456;47.824;16.228;2023-05-15T04:37:47;4.73;;;4.00;;
18653;SDS011;9456;47.824;16.228;2023-05-15T04:40:15;4.00;;;3.70;;
18653;SDS011;9456;47.824;16.228;2023-05-15T04:42:44;3.97;;;3.67;;
18653;SDS011;9456;47.824;16.228;2023-05-15T04:45:13;4.13;;;3.73;;
18653;SDS011;9456;47.824;16.228;2023-05-15T04:47:42;3.90;;;3.60;;
18653;SDS011;9456;47.824;16.228;2023-05-15T04:50:11;4.43;;;4.13;;
18653;SDS011;9456;47.824;16.228;2023-05-15T04:52:40;4.63;;;3.97;;
18653;SDS011;9456;47.824;16.228;2023-05-15T04:55:09;4.33;;;3.70;;
18653;SDS011;9456;47.824;16.228;2023-05-15T04:57:47;3.90;;;3.47;;
18653;SDS011;9456;47.824;16.228;2023-05-15T05:00:16;3.60;;;3.30;;
18653;SDS011;9456;47.824;16.228;2023-05-15T05:02:45;3.37;;;3.07;;
18653;SDS011;9456;47.824;16.228;2023-05-15T05:05:14;3.57;;;3.10;;
18653;SDS011;9456;47.824;16.228;2023-05-15T05:07:43;4.40;;;3.57;;
18653;SDS011;9456;47.824;16.228;2023-05-15T05:10:12;3.60;;;3.30;;
18653;SDS011;9456;47.824;16.228;2023-05-15T05:12:41;3.43;;;3.23;;
18653;SDS011;9456;47.824;16.228;2023-05-15T05:15:10;3.73;;;3.43;;
18653;SDS011;9456;47.824;16.228;2023-05-15T05:17:39;4.63;;;3.50;;
18653;SDS011;9456;47.824;16.228;2023-05-15T05:20:09;3.20;;;2.90;;
18653;SDS011;9456;47.824;16.228;2023-05-15T05:22:39;2.80;;;2.60;;
18653;SDS011;9456;47.824;16.228;2023-05-15T05:25:08;3.33;;;2.53;;
18653;SDS011;9456;47.824;16.228;2023-05-15T05:27:37;3.03;;;2.80;;
18653;SDS011;9456;47.824;16.228;2023-05-15T05:30:07;2.57;;;2.27;;
18653;SDS011;9456;47.824;16.228;2023-05-15T05:32:37;2.10;;;2.00;;
18653;SDS011;9456;47.824;16.228;2023-05-15T05:35:06;2.30;;;2.10;;
18653;SDS011;9456;47.824;16.228;2023-05-15T05:37:36;2.17;;;2.00;;
18653;SDS011;9456;47.824;16.228;2023-05-15T05:40:06;2.50;;;2.30;;
18653;SDS011;9456;47.824;16.228;2023-05-15T05:42:35;2.53;;;1.60;;
18653;SDS011;9456;47.824;16.228;2023-05-15T05:45:05;1.70;;;1.60;;
18653;SDS011;9456;47.824;16.228;2023-05-15T05:47:35;2.03;;;1.70;;
18653;SDS011;9456;47.824;16.228;2023-05-15T05:50:05;1.30;;;1.30;;
18653;SDS011;9456;47.824;16.228;2023-05-15T05:52:35;1.73;;;1.33;;
18653;SDS011;9456;47.824;16.228;2023-05-15T05:55:04;1.60;;;1.50;;
18653;SDS011;9456;47.824;16.228;2023-05-15T05:57:33;1.60;;;1.50;;
18653;SDS011;9456;47.824;16.228;2023-05-15T06:00:03;1.70;;;1.60;;
18653;SDS011;9456;47.824;16.228;2023-05-15T06:02:34;5.07;;;1.40;;
18653;SDS011;9456;47.824;16.228;2023-05-15T06:05:03;5.57;;;1.40;;
18653;SDS011;9456;47.824;16.228;2023-05-15T06:07:33;2.63;;;1.30;;
18653;SDS011;9456;47.824;16.228;2023-05-15T06:10:02;1.93;;;1.63;;
18653;SDS011;9456;47.824;16.228;2023-05-15T06:12:31;2.80;;;1.40;;
18653;SDS011;9456;47.824;16.228;2023-05-15T06:15:00;1.67;;;1.13;;
18653;SDS011;9456;47.824;16.228;2023-05-15T06:17:29;1.83;;;1.20;;
18653;SDS011;9456;47.824;16.228;2023-05-15T06:19:58;3.03;;;1.10;;
18653;SDS011;9456;47.824;16.228;2023-05-15T06:22:27;1.10;;;1.03;;
18653;SDS011;9456;47.824;16.228;2023-05-15T06:24:56;0.90;;;0.70;;
18653;SDS011;9456;47.824;16.228;2023-05-15T06:27:25;3.03;;;0.80;;
18653;SDS011;9456;47.824;16.228;2023-05-15T06:29:54;0.90;;;0.90;;
18653;SDS011;9456;47.824;16.228;2023-05-15T06:32:23;0.90;;;0.90;;
18653;SDS011;9456;47.824;16.228;2023-05-15T06:34:52;0.80;;;0.80;;
18653;SDS011;9456;47.824;16.228;2023-05-15T06:37:21;0.80;;;0.73;;
18653;SDS011;9456;47.824;16.228;2023-05-15T06:39:50;1.70;;;1.10;;
18653;SDS011;9456;47.824;16.228;2023-05-15T06:42:19;2.10;;;1.10;;
18653;SDS011;9456;47.824;16.228;2023-05-15T06:44:48;1.20;;;1.10;;
18653;SDS011;9456;47.824;16.228;2023-05-15T06:47:17;1.23;;;1.10;;
18653;SDS011;9456;47.824;16.228;2023-05-15T06:49:46;0.93;;;0.90;;
18653;SDS011;9456;47.824;16.228;2023-05-15T06:52:15;1.53;;;1.00;;
18653;SDS011;9456;47.824;16.228;2023-05-15T06:54:44;2.40;;;1.13;;
18653;SDS011;9456;47.824;16.228;2023-05-15T06:57:13;1.23;;;0.93;;
18653;SDS011;9456;47.824;16.228;2023-05-15T06:59:41;1.07;;;1.07;;
18653;SDS011;9456;47.824;16.228;2023-05-15T07:02:14;1.20;;;1.20;;
18653;SDS011;9456;47.824;16.228;2023-05-15T07:04:43;2.83;;;0.90;;
18653;SDS011;9456;47.824;16.228;2023-05-15T07:07:12;0.70;;;0.70;;
18653;SDS011;9456;47.824;16.228;2023-05-15T07:09:41;0.70;;;0.70;;
18653;SDS011;9456;47.824;16.228;2023-05-15T07:12:10;1.13;;;0.80;;
18653;SDS011;9456;47.824;16.228;2023-05-15T07:14:39;0.80;;;0.80;;
18653;SDS011;9456;47.824;16.228;2023-05-15T07:17:08;2.90;;;0.70;;
18653;SDS011;9456;47.824;16.228;2023-05-15T07:19:37;0.53;;;0.53;;
18653;SDS011;9456;47.824;16.228;2023-05-15T07:22:05;0.70;;;0.70;;
18653;SDS011;9456;47.824;16.228;2023-05-15T07:24:34;1.10;;;0.97;;
18653;SDS011;9456;47.824;16.228;2023-05-15T07:27:04;2.93;;;0.70;;
18653;SDS011;9456;47.824;16.228;2023-05-15T07:29:33;0.50;;;0.50;;
18653;SDS011;9456;47.824;16.228;2023-05-15T07:32:02;0.70;;;0.70;;
18653;SDS011;9456;47.824;16.228;2023-05-15T07:34:31;0.30;;;0.30;;
18653;SDS011;9456;47.824;16.228;2023-05-15T07:39:27;1.60;;;0.20;;
18653;SDS011;9456;47.824;16.228;2023-05-15T07:41:56;1.83;;;0.60;;
18653;SDS011;9456;47.824;16.228;2023-05-15T07:44:25;0.40;;;0.37;;
18653;SDS011;9456;47.824;16.228;2023-05-15T07:46:54;2.20;;;0.50;;
18653;SDS011;9456;47.824;16.228;2023-05-15T07:49:23;0.20;;;0.20;;
18653;SDS011;9456;47.824;16.228;2023-05-15T07:51:52;0.93;;;0.33;;
18653;SDS011;9456;47.824;16.228;2023-05-15T07:54:21;1.23;;;0.50;;
18653;SDS011;9456;47.824;16.228;2023-05-15T07:56:50;0.20;;;0.20;;
18653;SDS011;9456;47.824;16.228;2023-05-15T07:59:19;3.77;;;0.87;;
18653;SDS011;9456;47.824;16.228;2023-05-15T08:01:48;0.77;;;0.27;;
18653;SDS011;9456;47.824;16.228;2023-05-15T08:04:19;0.20;;;0.20;;
18653;SDS011;9456;47.824;16.228;2023-05-15T08:06:48;0.63;;;0.10;;
18653;SDS011;9456;47.824;16.228;2023-05-15T08:09:17;2.60;;;1.10;;
18653;SDS011;9456;47.824;16.228;2023-05-15T08:11:46;1.63;;;0.30;;
18653;SDS011;9456;47.824;16.228;2023-05-15T08:14:15;1.30;;;0.90;;
18653;SDS011;9456;47.824;16.228;2023-05-15T08:16:44;0.60;;;0.40;;
18653;SDS011;9456;47.824;16.228;2023-05-15T08:19:12;0.40;;;0.40;;
18653;SDS011;9456;47.824;16.228;2023-05-15T08:21:41;0.30;;;0.30;;
18653;SDS011;9456;47.824;16.228;2023-05-15T08:24:10;0.53;;;0.27;;
18653;SDS011;9456;47.824;16.228;2023-05-15T08:26:39;0.50;;;0.30;;
18653;SDS011;9456;47.824;16.228;2023-05-15T08:29:08;0.20;;;0.20;;
18653;SDS011;9456;47.824;16.228;2023-05-15T08:31:37;2.77;;;0.33;;
18653;SDS011;9456;47.824;16.228;2023-05-15T08:34:06;1.40;;;0.20;;
18653;SDS011;9456;47.824;16.228;2023-05-15T08:36:35;0.10;;;0.10;;
18653;SDS011;9456;47.824;16.228;2023-05-15T08:39:04;1.47;;;0.30;;
18653;SDS011;9456;47.824;16.228;2023-05-15T08:41:35;0.40;;;0.40;;
18653;SDS011;9456;47.824;16.228;2023-05-15T08:44:02;0.87;;;0.40;;
18653;SDS011;9456;47.824;16.228;2023-05-15T08:46:31;0.30;;;0.30;;
18653;SDS011;9456;47.824;16.228;2023-05-15T08:48:59;0.60;;;0.10;;
18653;SDS011;9456;47.824;16.228;2023-05-15T08:51:28;1.17;;;0.33;;
18653;SDS011;9456;47.824;16.228;2023-05-15T08:53:57;0.70;;;0.60;;
18653;SDS011;9456;47.824;16.228;2023-05-15T08:56:26;0.43;;;0.43;;
18653;SDS011;9456;47.824;16.228;2023-05-15T08:58:55;0.40;;;0.20;;
18653;SDS011;9456;47.824;16.228;2023-05-15T09:01:24;3.07;;;0.87;;
18653;SDS011;9456;47.824;16.228;2023-05-15T09:03:53;0.30;;;0.20;;
18653;SDS011;9456;47.824;16.228;2023-05-15T09:06:25;0.63;;;0.27;;
18653;SDS011;9456;47.824;16.228;2023-05-15T09:08:54;0.50;;;0.50;;
18653;SDS011;9456;47.824;16.228;2023-05-15T09:11:23;0.50;;;0.30;;
18653;SDS011;9456;47.824;16.228;2023-05-15T09:13:53;0.20;;;0.10;;
18653;SDS011;9456;47.824;16.228;2023-05-15T09:16:24;1.97;;;0.30;;
18653;SDS011;9456;47.824;16.228;2023-05-15T09:18:53;0.20;;;0.13;;
18653;SDS011;9456;47.824;16.228;2023-05-15T09:21:22;0.33;;;0.10;;
18653;SDS011;9456;47.824;16.228;2023-05-15T09:23:51;2.03;;;0.50;;
18653;SDS011;9456;47.824;16.228;2023-05-15T09:26:20;2.60;;;0.70;;
18653;SDS011;9456;47.824;16.228;2023-05-15T09:28:49;1.07;;;0.20;;
18653;SDS011;9456;47.824;16.228;2023-05-15T09:31:19;1.00;;;0.00;;
18653;SDS011;9456;47.824;16.228;2023-05-15T09:33:48;1.17;;;0.87;;
18653;SDS011;9456;47.824;16.228;2023-05-15T09:36:20;1.00;;;0.60;;
18653;SDS011;9456;47.824;16.228;2023-05-15T09:38:46;0.40;;;0.20;;
18653;SDS011;9456;47.824;16.228;2023-05-15T09:41:14;0.20;;;0.20;;
18653;SDS011;9456;47.824;16.228;2023-05-15T09:43:43;2.40;;;0.80;;
18653;SDS011;9456;47.824;16.228;2023-05-15T09:46:13;0.83;;;0.60;;
18653;SDS011;9456;47.824;16.228;2023-05-15T09:48:42;0.47;;;0.23;;
18653;SDS011;9456;47.824;16.228;2023-05-15T09:51:14;1.33;;;0.20;;
18653;SDS011;9456;47.824;16.228;2023-05-15T09:53:45;0.70;;;0.30;;
18653;SDS011;9456;47.824;16.228;2023-05-15T09:56:15;0.95;;;0.30;;
18653;SDS011;9456;47.824;16.228;2023-05-15T09:58:53;1.55;;;0.35;;
18653;SDS011;9456;47.824;16.228;2023-05-15T10:01:22;0.40;;;0.40;;
18653;SDS011;9456;47.824;16.228;2023-05-15T10:16:17;1.20;;;0.50;;
18653;SDS011;9456;47.824;16.228;2023-05-15T10:21:14;0.70;;;0.30;;
18653;SDS011;9456;47.824;16.228;2023-05-15T10:28:38;0.50;;;0.50;;
18653;SDS011;9456;47.824;16.228;2023-05-15T10:31:07;4.40;;;0.30;;
18653;SDS011;9456;47.824;16.228;2023-05-15T10:33:36;0.50;;;0.50;;
18653;SDS011;9456;47.824;16.228;2023-05-15T10:36:05;1.95;;;1.05;;
18653;SDS011;9456;47.824;16.228;2023-05-15T10:38:35;2.93;;;0.63;;
18653;SDS011;9456;47.824;16.228;2023-05-15T10:41:04;1.33;;;0.30;;
18653;SDS011;9456;47.824;16.228;2023-05-15T10:43:33;0.30;;;0.30;;
18653;SDS011;9456;47.824;16.228;2023-05-15T10:46:02;0.40;;;0.40;;
18653;SDS011;9456;47.824;16.228;2023-05-15T10:48:31;1.13;;;0.47;;
18653;SDS011;9456;47.824;16.228;2023-05-15T10:51:00;0.30;;;0.30;;
18653;SDS011;9456;47.824;16.228;2023-05-15T10:53:29;0.50;;;0.50;;
18653;SDS011;9456;47.824;16.228;2023-05-15T11:56:01;0.20;;;0.20;;
18653;SDS011;9456;47.824;16.228;2023-05-15T11:58:31;0.97;;;0.50;;
18653;SDS011;9456;47.824;16.228;2023-05-15T12:01:00;0.53;;;0.20;;
18653;SDS011;9456;47.824;16.228;2023-05-15T12:03:32;0.60;;;0.30;;
18653;SDS011;9456;47.824;16.228;2023-05-15T12:06:01;0.30;;;0.30;;
18653;SDS011;9456;47.824;16.228;2023-05-15T12:08:31;0.87;;;0.33;;
18653;SDS011;9456;47.824;16.228;2023-05-15T12:11:00;0.10;;;0.10;;
18653;SDS011;9456;47.824;16.228;2023-05-15T12:13:31;0.27;;;0.27;;
18653;SDS011;9456;47.824;16.228;2023-05-15T12:16:00;0.30;;;0.30;;
18653;SDS011;9456;47.824;16.228;2023-05-15T12:18:30;0.10;;;0.10;;
18653;SDS011;9456;47.824;16.228;2023-05-15T12:20:59;1.80;;;0.60;;
18653;SDS011;9456;47.824;16.228;2023-05-15T12:23:28;0.30;;;0.30;;
18653;SDS011;9456;47.824;16.228;2023-05-15T12:25:58;0.80;;;0.40;;
18653;SDS011;9456;47.824;16.228;2023-05-15T12:28:26;0.67;;;0.27;;
18653;SDS011;9456;47.824;16.228;2023-05-15T12:30:55;0.30;;;0.20;;
18653;SDS011;9456;47.824;16.228;2023-05-15T12:33:25;0.30;;;0.30;;
18653;SDS011;9456;47.824;16.228;2023-05-15T12:35:54;1.13;;;0.40;;
18653;SDS011;9456;47.824;16.228;2023-05-15T12:38:23;0.30;;;0.20;;
18653;SDS011;9456;47.824;16.228;2023-05-15T12:40:52;0.10;;;0.10;;
18653;SDS011;9456;47.824;16.228;2023-05-15T12:43:23;0.47;;;0.30;;
18653;SDS011;9456;47.824;16.228;2023-05-15T12:45:52;0.30;;;0.30;;
18653;SDS011;9456;47.824;16.228;2023-05-15T12:48:21;1.37;;;0.10;;
18653;SDS011;9456;47.824;16.228;2023-05-15T12:50:50;0.40;;;0.40;;
18653;SDS011;9456;47.824;16.228;2023-05-15T12:53:19;0.80;;;0.60;;
18653;SDS011;9456;47.824;16.228;2023-05-15T12:55:48;0.33;;;0.33;;
18653;SDS011;9456;47.824;16.228;2023-05-15T12:58:17;0.77;;;0.30;;
18653;SDS011;9456;47.824;16.228;2023-05-15T13:00:46;1.03;;;0.40;;
18653;SDS011;9456;47.824;16.228;2023-05-15T13:03:18;0.33;;;0.20;;
18653;SDS011;9456;47.824;16.228;2023-05-15T13:05:44;0.47;;;0.47;;
18653;SDS011;9456;47.824;16.228;2023-05-15T13:08:14;0.27;;;0.27;;
18653;SDS011;9456;47.824;16.228;2023-05-15T13:10:44;0.40;;;0.30;;
18653;SDS011;9456;47.824;16.228;2023-05-15T13:13:12;0.97;;;0.20;;
18653;SDS011;9456;47.824;16.228;2023-05-15T13:15:42;1.60;;;0.30;;
18653;SDS011;9456;47.824;16.228;2023-05-15T13:18:11;0.83;;;0.27;;
18653;SDS011;9456;47.824;16.228;2023-05-15T13:20:40;0.17;;;0.17;;
18653;SDS011;9456;47.824;16.228;2023-05-15T13:23:10;0.17;;;0.17;;
18653;SDS011;9456;47.824;16.228;2023-05-15T13:25:38;0.20;;;0.20;;
18653;SDS011;9456;47.824;16.228;2023-05-15T13:28:08;0.93;;;0.40;;
18653;SDS011;9456;47.824;16.228;2023-05-15T13:30:37;0.50;;;0.40;;
18653;SDS011;9456;47.824;16.228;2023-05-15T13:33:06;1.20;;;0.30;;
18653;SDS011;9456;47.824;16.228;2023-05-15T13:35:35;0.20;;;0.20;;
18653;SDS011;9456;47.824;16.228;2023-05-15T13:38:04;2.33;;;0.50;;
18653;SDS011;9456;47.824;16.228;2023-05-15T13:40:33;0.30;;;0.20;;
18653;SDS011;9456;47.824;16.228;2023-05-15T13:43:02;0.20;;;0.20;;
18653;SDS011;9456;47.824;16.228;2023-05-15T13:45:31;0.50;;;0.30;;
18653;SDS011;9456;47.824;16.228;2023-05-15T13:48:00;0.20;;;0.13;;
18653;SDS011;9456;47.824;16.228;2023-05-15T13:50:29;0.20;;;0.20;;
18653;SDS011;9456;47.824;16.228;2023-05-15T13:52:58;0.20;;;0.20;;
18653;SDS011;9456;47.824;16.228;2023-05-15T13:55:27;0.87;;;0.20;;
18653;SDS011;9456;47.824;16.228;2023-05-15T13:57:56;0.10;;;0.10;;
18653;SDS011;9456;47.824;16.228;2023-05-15T14:00:25;0.20;;;0.20;;
18653;SDS011;9456;47.824;16.228;2023-05-15T14:02:54;0.43;;;0.20;;
18653;SDS011;9456;47.824;16.228;2023-05-15T14:05:22;0.67;;;0.20;;
18653;SDS011;9456;47.824;16.228;2023-05-15T14:07:51;0.60;;;0.30;;
18653;SDS011;9456;47.824;16.228;2023-05-15T14:10:20;0.43;;;0.30;;
18653;SDS011;9456;47.824;16.228;2023-05-15T14:12:50;0.40;;;0.33;;
18653;SDS011;9456;47.824;16.228;2023-05-15T14:15:19;0.73;;;0.40;;
18653;SDS011;9456;47.824;16.228;2023-05-15T14:17:48;0.67;;;0.67;;
18653;SDS011;9456;47.824;16.228;2023-05-15T14:20:17;0.30;;;0.30;;
18653;SDS011;9456;47.824;16.228;2023-05-15T14:22:46;1.53;;;0.50;;
18653;SDS011;9456;47.824;16.228;2023-05-15T14:25:15;0.80;;;0.50;;
18653;SDS011;9456;47.824;16.228;2023-05-15T14:27:44;0.53;;;0.53;;
18653;SDS011;9456;47.824;16.228;2023-05-15T14:30:13;0.73;;;0.70;;
18653;SDS011;9456;47.824;16.228;2023-05-15T14:32:42;0.60;;;0.60;;
18653;SDS011;9456;47.824;16.228;2023-05-15T14:35:11;0.53;;;0.53;;
18653;SDS011;9456;47.824;16.228;2023-05-15T14:37:40;3.73;;;0.67;;
18653;SDS011;9456;47.824;16.228;2023-05-15T14:40:10;0.93;;;0.50;;
18653;SDS011;9456;47.824;16.228;2023-05-15T14:42:39;1.73;;;0.70;;
18653;SDS011;9456;47.824;16.228;2023-05-15T14:45:09;2.97;;;0.90;;
18653;SDS011;9456;47.824;16.228;2023-05-15T14:47:38;3.60;;;0.80;;
18653;SDS011;9456;47.824;16.228;2023-05-15T14:50:07;1.43;;;0.40;;
18653;SDS011;9456;47.824;16.228;2023-05-15T14:52:36;0.67;;;0.67;;
18653;SDS011;9456;47.824;16.228;2023-05-15T14:55:06;2.23;;;0.93;;
18653;SDS011;9456;47.824;16.228;2023-05-15T14:57:36;3.20;;;0.50;;
18653;SDS011;9456;47.824;16.228;2023-05-15T15:00:06;0.50;;;0.50;;
18653;SDS011;9456;47.824;16.228;2023-05-15T15:02:36;0.40;;;0.30;;
18653;SDS011;9456;47.824;16.228;2023-05-15T15:05:05;0.70;;;0.60;;
18653;SDS011;9456;47.824;16.228;2023-05-15T15:10:27;0.30;;;0.30;;
18653;SDS011;9456;47.824;16.228;2023-05-15T15:12:55;0.30;;;0.20;;
18653;SDS011;9456;47.824;16.228;2023-05-15T15:15:24;0.40;;;0.30;;
18653;SDS011;9456;47.824;16.228;2023-05-15T15:17:53;1.80;;;0.60;;
18653;SDS011;9456;47.824;16.228;2023-05-15T15:20:23;0.53;;;0.53;;
18653;SDS011;9456;47.824;16.228;2023-05-15T15:22:52;0.67;;;0.67;;
18653;SDS011;9456;47.824;16.228;2023-05-15T15:25:21;0.60;;;0.60;;
18653;SDS011;9456;47.824;16.228;2023-05-15T15:27:50;1.80;;;0.77;;
18653;SDS011;9456;47.824;16.228;2023-05-15T15:30:18;1.27;;;0.40;;
18653;SDS011;9456;47.824;16.228;2023-05-15T15:32:47;0.47;;;0.47;;
18653;SDS011;9456;47.824;16.228;2023-05-15T15:35:16;0.70;;;0.70;;
18653;SDS011;9456;47.824;16.228;2023-05-15T15:37:45;0.70;;;0.70;;
18653;SDS011;9456;47.824;16.228;2023-05-15T15:40:14;0.77;;;0.70;;
18653;SDS011;9456;47.824;16.228;2023-05-15T15:42:43;1.40;;;0.87;;
18653;SDS011;9456;47.824;16.228;2023-05-15T15:45:12;0.97;;;0.60;;
18653;SDS011;9456;47.824;16.228;2023-05-15T15:47:41;0.50;;;0.50;;
18653;SDS011;9456;47.824;16.228;2023-05-15T15:50:10;0.60;;;0.60;;
18653;SDS011;9456;47.824;16.228;2023-05-15T15:52:39;0.70;;;0.70;;
18653;SDS011;9456;47.824;16.228;2023-05-15T15:55:09;0.70;;;0.70;;
18653;SDS011;9456;47.824;16.228;2023-05-15T15:57:38;0.60;;;0.60;;
18653;SDS011;9456;47.824;16.228;2023-05-15T16:00:07;0.50;;;0.50;;
18653;SDS011;9456;47.824;16.228;2023-05-15T16:12:28;0.90;;;0.90;;
18653;SDS011;9456;47.824;16.228;2023-05-15T16:14:57;0.75;;;0.75;;
18653;SDS011;9456;47.824;16.228;2023-05-15T16:19:53;1.20;;;1.03;;
18653;SDS011;9456;47.824;16.228;2023-05-15T16:22:22;0.83;;;0.83;;
18653;SDS011;9456;47.824;16.228;2023-05-15T16:24:51;1.80;;;1.00;;
18653;SDS011;9456;47.824;16.228;2023-05-15T16:44:33;1.23;;;1.23;;
18653;SDS011;9456;47.824;16.228;2023-05-15T16:56:53;0.95;;;0.95;;
18653;SDS011;9456;47.824;16.228;2023-05-15T17:04:17;0.97;;;0.97;;
18653;SDS011;9456;47.824;16.228;2023-05-15T17:29:38;2.03;;;1.30;;
18653;SDS011;9456;47.824;16.228;2023-05-15T17:37:03;1.10;;;1.10;;
18653;SDS011;9456;47.824;16.228;2023-05-15T17:49:22;1.30;;;1.30;;
18653;SDS011;9456;47.824;16.228;2023-05-15T18:06:39;1.65;;;1.55;;
18653;SDS011;9456;47.824;16.228;2023-05-15T18:09:09;1.50;;;1.40;;
18653;SDS011;9456;47.824;16.228;2023-05-15T18:19:00;2.30;;;1.53;;